sensor_id;sensor_type;location;lat;lon;timestamp;P1;durP1;ratioP1;P2;durP2;ratioP2
50631;SDS011;49583;45.590;-122.498;2023-06-22T00:01:27;0.70;;;0.50;;
50631;SDS011;49583;45.590;-122.498;2023-06-22T00:03:40;1.10;;;0.40;;
50631;SDS011;49583;45.590;-122.498;2023-06-22T00:06:13;5.60;;;0.80;;
50631;SDS011;49583;45.590;-122.498;2023-06-22T00:08:38;1.40;;;0.50;;
50631;SDS011;49583;45.590;-122.498;2023-06-22T00:11:03;1.20;;;0.60;;
50631;SDS011;49583;45.590;-122.498;2023-06-22T00:13:21;3.20;;;0.40;;
50631;SDS011;49583;45.590;-122.498;2023-06-22T00:15:54;1.40;;;0.60;;
50631;SDS011;49583;45.590;-122.498;2023-06-22T00:18:27;1.20;;;0.60;;
50631;SDS011;49583;45.590;-122.498;2023-06-22T00:20:53;1.50;;;0.50;;
50631;SDS011;49583;45.590;-122.498;2023-06-22T00:23:27;1.20;;;0.40;;
50631;SDS011;49583;45.590;-122.498;2023-06-22T00:25:55;0.60;;;0.50;;
50631;SDS011;49583;45.590;-122.498;2023-06-22T00:28:28;0.90;;;0.60;;
50631;SDS011;49583;45.590;-122.498;2023-06-22T00:30:51;1.30;;;0.50;;
50631;SDS011;49583;45.590;-122.498;2023-06-22T00:33:19;1.80;;;0.50;;
50631;SDS011;49583;45.590;-122.498;2023-06-22T00:35:52;0.50;;;0.50;;
50631;SDS011;49583;45.590;-122.498;2023-06-22T00:38:20;0.70;;;0.50;;
50631;SDS011;49583;45.590;-122.498;2023-06-22T00:40:54;1.60;;;0.50;;
50631;SDS011;49583;45.590;-122.498;2023-06-22T00:43:17;3.00;;;0.50;;
50631;SDS011;49583;45.590;-122.498;2023-06-22T00:45:50;1.70;;;0.60;;
50631;SDS011;49583;45.590;-122.498;2023-06-22T00:48:19;1.00;;;0.70;;
50631;SDS011;49583;45.590;-122.498;2023-06-22T00:50:35;1.10;;;0.50;;
50631;SDS011;49583;45.590;-122.498;2023-06-22T00:53:09;2.30;;;0.60;;
50631;SDS011;49583;45.590;-122.498;2023-06-22T00:55:26;0.90;;;0.70;;
50631;SDS011;49583;45.590;-122.498;2023-06-22T00:57:43;3.40;;;0.90;;
50631;SDS011;49583;45.590;-122.498;2023-06-22T01:00:17;1.70;;;0.70;;
50631;SDS011;49583;45.590;-122.498;2023-06-22T01:02:32;1.20;;;0.60;;
50631;SDS011;49583;45.590;-122.498;2023-06-22T01:04:50;1.40;;;0.80;;
50631;SDS011;49583;45.590;-122.498;2023-06-22T01:07:05;1.20;;;0.90;;
50631;SDS011;49583;45.590;-122.498;2023-06-22T01:09:51;0.80;;;0.80;;
50631;SDS011;49583;45.590;-122.498;2023-06-22T01:12:20;1.90;;;0.90;;
50631;SDS011;49583;45.590;-122.498;2023-06-22T01:14:54;1.20;;;0.90;;
50631;SDS011;49583;45.590;-122.498;2023-06-22T01:19:59;2.00;;;0.80;;
50631;SDS011;49583;45.590;-122.498;2023-06-22T01:22:17;0.80;;;0.80;;
50631;SDS011;49583;45.590;-122.498;2023-06-22T01:24:55;2.60;;;1.10;;
50631;SDS011;49583;45.590;-122.498;2023-06-22T01:27:25;1.20;;;0.90;;
50631;SDS011;49583;45.590;-122.498;2023-06-22T01:30:20;0.90;;;0.80;;
50631;SDS011;49583;45.590;-122.498;2023-06-22T01:32:35;1.30;;;0.80;;
50631;SDS011;49583;45.590;-122.498;2023-06-22T01:35:10;3.20;;;0.80;;
50631;SDS011;49583;45.590;-122.498;2023-06-22T01:37:37;2.90;;;0.90;;
50631;SDS011;49583;45.590;-122.498;2023-06-22T01:40:10;1.70;;;0.90;;
50631;SDS011;49583;45.590;-122.498;2023-06-22T01:42:30;1.70;;;0.90;;
50631;SDS011;49583;45.590;-122.498;2023-06-22T01:44:58;5.80;;;1.50;;
50631;SDS011;49583;45.590;-122.498;2023-06-22T01:47:23;2.50;;;0.90;;
50631;SDS011;49583;45.590;-122.498;2023-06-22T01:49:57;3.10;;;1.10;;
50631;SDS011;49583;45.590;-122.498;2023-06-22T01:52:31;1.50;;;1.30;;
50631;SDS011;49583;45.590;-122.498;2023-06-22T01:54:57;3.40;;;1.30;;
50631;SDS011;49583;45.590;-122.498;2023-06-22T01:57:30;3.20;;;0.90;;
50631;SDS011;49583;45.590;-122.498;2023-06-22T01:59:48;2.80;;;1.10;;
50631;SDS011;49583;45.590;-122.498;2023-06-22T02:02:29;1.50;;;1.20;;
50631;SDS011;49583;45.590;-122.498;2023-06-22T02:05:09;1.30;;;1.00;;
50631;SDS011;49583;45.590;-122.498;2023-06-22T02:07:45;1.60;;;0.90;;
50631;SDS011;49583;45.590;-122.498;2023-06-22T02:10:20;2.80;;;0.90;;
50631;SDS011;49583;45.590;-122.498;2023-06-22T02:12:46;1.70;;;0.90;;
50631;SDS011;49583;45.590;-122.498;2023-06-22T02:15:13;2.00;;;1.10;;
50631;SDS011;49583;45.590;-122.498;2023-06-22T02:17:42;1.70;;;1.00;;
50631;SDS011;49583;45.590;-122.498;2023-06-22T02:20:07;1.80;;;1.20;;
50631;SDS011;49583;45.590;-122.498;2023-06-22T02:22:28;2.90;;;1.30;;
50631;SDS011;49583;45.590;-122.498;2023-06-22T02:24:44;1.40;;;0.90;;
50631;SDS011;49583;45.590;-122.498;2023-06-22T02:27:19;3.00;;;1.20;;
50631;SDS011;49583;45.590;-122.498;2023-06-22T02:29:41;2.60;;;1.00;;
50631;SDS011;49583;45.590;-122.498;2023-06-22T02:32:09;1.70;;;0.90;;
50631;SDS011;49583;45.590;-122.498;2023-06-22T02:34:26;3.50;;;1.10;;
50631;SDS011;49583;45.590;-122.498;2023-06-22T02:36:44;2.30;;;1.20;;
50631;SDS011;49583;45.590;-122.498;2023-06-22T02:39:04;1.80;;;1.10;;
50631;SDS011;49583;45.590;-122.498;2023-06-22T02:41:38;2.10;;;1.30;;
50631;SDS011;49583;45.590;-122.498;2023-06-22T02:44:11;1.60;;;1.20;;
50631;SDS011;49583;45.590;-122.498;2023-06-22T02:46:28;1.20;;;0.90;;
50631;SDS011;49583;45.590;-122.498;2023-06-22T02:49:01;3.20;;;1.00;;
50631;SDS011;49583;45.590;-122.498;2023-06-22T02:51:35;1.00;;;0.90;;
50631;SDS011;49583;45.590;-122.498;2023-06-22T02:54:08;2.40;;;1.00;;
50631;SDS011;49583;45.590;-122.498;2023-06-22T02:56:34;1.30;;;0.90;;
50631;SDS011;49583;45.590;-122.498;2023-06-22T02:59:00;1.40;;;0.90;;
50631;SDS011;49583;45.590;-122.498;2023-06-22T03:01:23;2.30;;;1.20;;
50631;SDS011;49583;45.590;-122.498;2023-06-22T03:03:58;1.20;;;0.90;;
50631;SDS011;49583;45.590;-122.498;2023-06-22T03:06:22;1.60;;;1.10;;
50631;SDS011;49583;45.590;-122.498;2023-06-22T03:08:42;3.50;;;1.30;;
50631;SDS011;49583;45.590;-122.498;2023-06-22T03:10:58;1.00;;;0.90;;
50631;SDS011;49583;45.590;-122.498;2023-06-22T03:13:30;3.60;;;0.80;;
50631;SDS011;49583;45.590;-122.498;2023-06-22T03:15:54;1.80;;;0.90;;
50631;SDS011;49583;45.590;-122.498;2023-06-22T03:18:13;1.80;;;1.30;;
50631;SDS011;49583;45.590;-122.498;2023-06-22T03:20:45;1.40;;;1.10;;
50631;SDS011;49583;45.590;-122.498;2023-06-22T03:23:09;1.90;;;1.20;;
50631;SDS011;49583;45.590;-122.498;2023-06-22T03:25:42;1.60;;;1.00;;
50631;SDS011;49583;45.590;-122.498;2023-06-22T03:27:55;1.40;;;0.90;;
50631;SDS011;49583;45.590;-122.498;2023-06-22T03:30:20;2.90;;;1.40;;
50631;SDS011;49583;45.590;-122.498;2023-06-22T03:32:39;1.90;;;1.20;;
50631;SDS011;49583;45.590;-122.498;2023-06-22T03:35:15;2.20;;;1.20;;
50631;SDS011;49583;45.590;-122.498;2023-06-22T03:37:38;2.90;;;1.00;;
50631;SDS011;49583;45.590;-122.498;2023-06-22T03:40:11;1.70;;;0.90;;
50631;SDS011;49583;45.590;-122.498;2023-06-22T03:42:28;3.00;;;1.00;;
50631;SDS011;49583;45.590;-122.498;2023-06-22T03:44:51;1.60;;;1.20;;
50631;SDS011;49583;45.590;-122.498;2023-06-22T03:47:25;1.40;;;1.00;;
50631;SDS011;49583;45.590;-122.498;2023-06-22T03:49:59;2.30;;;1.10;;
50631;SDS011;49583;45.590;-122.498;2023-06-22T03:52:34;1.20;;;1.10;;
50631;SDS011;49583;45.590;-122.498;2023-06-22T03:54:57;4.40;;;1.30;;
50631;SDS011;49583;45.590;-122.498;2023-06-22T03:57:30;2.20;;;1.00;;
50631;SDS011;49583;45.590;-122.498;2023-06-22T03:59:54;1.80;;;1.30;;
50631;SDS011;49583;45.590;-122.498;2023-06-22T04:02:17;2.80;;;1.10;;
50631;SDS011;49583;45.590;-122.498;2023-06-22T04:04:51;3.30;;;1.00;;
50631;SDS011;49583;45.590;-122.498;2023-06-22T04:07:26;3.10;;;1.30;;
50631;SDS011;49583;45.590;-122.498;2023-06-22T04:10:00;1.30;;;1.10;;
50631;SDS011;49583;45.590;-122.498;2023-06-22T04:12:35;2.60;;;1.30;;
50631;SDS011;49583;45.590;-122.498;2023-06-22T04:15:09;1.20;;;1.00;;
50631;SDS011;49583;45.590;-122.498;2023-06-22T04:17:43;2.10;;;1.20;;
50631;SDS011;49583;45.590;-122.498;2023-06-22T04:20:16;4.20;;;1.90;;
50631;SDS011;49583;45.590;-122.498;2023-06-22T04:22:40;2.20;;;1.30;;
50631;SDS011;49583;45.590;-122.498;2023-06-22T04:25:14;3.80;;;1.20;;
50631;SDS011;49583;45.590;-122.498;2023-06-22T04:27:40;2.20;;;1.30;;
50631;SDS011;49583;45.590;-122.498;2023-06-22T04:30:14;5.40;;;1.70;;
50631;SDS011;49583;45.590;-122.498;2023-06-22T04:32:46;3.40;;;1.40;;
50631;SDS011;49583;45.590;-122.498;2023-06-22T04:35:09;4.10;;;1.30;;
50631;SDS011;49583;45.590;-122.498;2023-06-22T04:37:33;3.30;;;1.30;;
50631;SDS011;49583;45.590;-122.498;2023-06-22T04:39:47;4.50;;;1.70;;
50631;SDS011;49583;45.590;-122.498;2023-06-22T04:42:11;3.20;;;1.70;;
50631;SDS011;49583;45.590;-122.498;2023-06-22T04:44:45;2.30;;;1.30;;
50631;SDS011;49583;45.590;-122.498;2023-06-22T04:47:09;3.30;;;1.50;;
50631;SDS011;49583;45.590;-122.498;2023-06-22T04:49:42;1.70;;;1.10;;
50631;SDS011;49583;45.590;-122.498;2023-06-22T04:52:08;3.50;;;1.30;;
50631;SDS011;49583;45.590;-122.498;2023-06-22T04:54:47;3.70;;;1.20;;
50631;SDS011;49583;45.590;-122.498;2023-06-22T04:57:07;4.40;;;1.60;;
50631;SDS011;49583;45.590;-122.498;2023-06-22T04:59:31;2.00;;;1.60;;
50631;SDS011;49583;45.590;-122.498;2023-06-22T05:01:56;2.20;;;1.30;;
50631;SDS011;49583;45.590;-122.498;2023-06-22T05:04:29;5.50;;;1.50;;
50631;SDS011;49583;45.590;-122.498;2023-06-22T05:07:05;2.00;;;1.30;;
50631;SDS011;49583;45.590;-122.498;2023-06-22T05:09:39;3.70;;;1.30;;
50631;SDS011;49583;45.590;-122.498;2023-06-22T05:12:06;2.60;;;1.70;;
50631;SDS011;49583;45.590;-122.498;2023-06-22T05:14:41;3.10;;;1.40;;
50631;SDS011;49583;45.590;-122.498;2023-06-22T05:17:15;4.90;;;1.30;;
50631;SDS011;49583;45.590;-122.498;2023-06-22T05:19:47;2.60;;;1.50;;
50631;SDS011;49583;45.590;-122.498;2023-06-22T05:22:20;2.80;;;1.40;;
50631;SDS011;49583;45.590;-122.498;2023-06-22T05:24:53;2.70;;;1.40;;
50631;SDS011;49583;45.590;-122.498;2023-06-22T05:27:26;2.00;;;1.30;;
50631;SDS011;49583;45.590;-122.498;2023-06-22T05:29:52;2.70;;;2.00;;
50631;SDS011;49583;45.590;-122.498;2023-06-22T05:32:25;3.30;;;1.50;;
50631;SDS011;49583;45.590;-122.498;2023-06-22T05:34:58;3.70;;;1.40;;
50631;SDS011;49583;45.590;-122.498;2023-06-22T05:37:31;3.90;;;1.80;;
50631;SDS011;49583;45.590;-122.498;2023-06-22T05:40:06;3.30;;;1.80;;
50631;SDS011;49583;45.590;-122.498;2023-06-22T05:42:23;3.30;;;1.70;;
50631;SDS011;49583;45.590;-122.498;2023-06-22T05:44:56;4.00;;;1.60;;
50631;SDS011;49583;45.590;-122.498;2023-06-22T05:47:29;4.60;;;1.60;;
50631;SDS011;49583;45.590;-122.498;2023-06-22T05:50:03;4.00;;;1.80;;
50631;SDS011;49583;45.590;-122.498;2023-06-22T05:52:33;3.70;;;1.60;;
50631;SDS011;49583;45.590;-122.498;2023-06-22T05:55:06;3.60;;;1.80;;
50631;SDS011;49583;45.590;-122.498;2023-06-22T05:57:19;1.60;;;1.40;;
50631;SDS011;49583;45.590;-122.498;2023-06-22T05:59:53;1.90;;;1.60;;
50631;SDS011;49583;45.590;-122.498;2023-06-22T06:02:25;2.40;;;1.60;;
50631;SDS011;49583;45.590;-122.498;2023-06-22T06:04:51;4.90;;;1.60;;
50631;SDS011;49583;45.590;-122.498;2023-06-22T06:07:16;2.10;;;1.60;;
50631;SDS011;49583;45.590;-122.498;2023-06-22T06:09:42;7.00;;;1.50;;
50631;SDS011;49583;45.590;-122.498;2023-06-22T06:12:06;5.80;;;1.70;;
50631;SDS011;49583;45.590;-122.498;2023-06-22T06:14:30;3.90;;;1.60;;
50631;SDS011;49583;45.590;-122.498;2023-06-22T06:17:03;3.50;;;1.60;;
50631;SDS011;49583;45.590;-122.498;2023-06-22T06:19:36;4.40;;;1.50;;
50631;SDS011;49583;45.590;-122.498;2023-06-22T06:22:09;2.60;;;1.60;;
50631;SDS011;49583;45.590;-122.498;2023-06-22T06:24:22;2.40;;;1.60;;
50631;SDS011;49583;45.590;-122.498;2023-06-22T06:26:55;3.80;;;1.50;;
50631;SDS011;49583;45.590;-122.498;2023-06-22T06:29:19;2.90;;;1.40;;
50631;SDS011;49583;45.590;-122.498;2023-06-22T06:31:53;2.50;;;1.70;;
50631;SDS011;49583;45.590;-122.498;2023-06-22T06:34:18;2.60;;;1.60;;
50631;SDS011;49583;45.590;-122.498;2023-06-22T06:36:51;3.30;;;1.90;;
50631;SDS011;49583;45.590;-122.498;2023-06-22T06:39:18;1.90;;;1.70;;
50631;SDS011;49583;45.590;-122.498;2023-06-22T06:41:42;5.30;;;1.80;;
50631;SDS011;49583;45.590;-122.498;2023-06-22T06:44:15;3.50;;;1.90;;
50631;SDS011;49583;45.590;-122.498;2023-06-22T06:46:51;1.60;;;1.50;;
50631;SDS011;49583;45.590;-122.498;2023-06-22T06:49:13;2.30;;;1.50;;
50631;SDS011;49583;45.590;-122.498;2023-06-22T06:51:25;4.10;;;2.20;;
50631;SDS011;49583;45.590;-122.498;2023-06-22T06:53:45;2.30;;;1.60;;
50631;SDS011;49583;45.590;-122.498;2023-06-22T06:56:09;3.50;;;1.90;;
50631;SDS011;49583;45.590;-122.498;2023-06-22T06:58:22;4.40;;;1.40;;
50631;SDS011;49583;45.590;-122.498;2023-06-22T07:00:47;3.00;;;1.80;;
50631;SDS011;49583;45.590;-122.498;2023-06-22T07:03:20;2.40;;;1.80;;
50631;SDS011;49583;45.590;-122.498;2023-06-22T07:05:53;2.20;;;1.90;;
50631;SDS011;49583;45.590;-122.498;2023-06-22T07:08:19;2.30;;;1.60;;
50631;SDS011;49583;45.590;-122.498;2023-06-22T07:10:51;3.50;;;1.90;;
50631;SDS011;49583;45.590;-122.498;2023-06-22T07:13:24;2.50;;;1.90;;
50631;SDS011;49583;45.590;-122.498;2023-06-22T07:15:50;4.70;;;1.90;;
50631;SDS011;49583;45.590;-122.498;2023-06-22T07:18:22;2.10;;;1.50;;
50631;SDS011;49583;45.590;-122.498;2023-06-22T07:20:36;3.70;;;1.70;;
50631;SDS011;49583;45.590;-122.498;2023-06-22T07:22:59;2.50;;;1.40;;
50631;SDS011;49583;45.590;-122.498;2023-06-22T07:25:22;2.80;;;1.90;;
50631;SDS011;49583;45.590;-122.498;2023-06-22T07:27:59;2.40;;;1.60;;
50631;SDS011;49583;45.590;-122.498;2023-06-22T07:30:32;1.90;;;1.80;;
50631;SDS011;49583;45.590;-122.498;2023-06-22T07:32:54;5.30;;;1.90;;
50631;SDS011;49583;45.590;-122.498;2023-06-22T07:35:12;3.00;;;1.90;;
50631;SDS011;49583;45.590;-122.498;2023-06-22T07:37:36;4.70;;;1.80;;
50631;SDS011;49583;45.590;-122.498;2023-06-22T07:40:09;4.80;;;2.00;;
50631;SDS011;49583;45.590;-122.498;2023-06-22T07:42:28;3.10;;;1.80;;
50631;SDS011;49583;45.590;-122.498;2023-06-22T07:45:02;5.30;;;2.00;;
50631;SDS011;49583;45.590;-122.498;2023-06-22T07:47:39;1.90;;;1.70;;
50631;SDS011;49583;45.590;-122.498;2023-06-22T07:49:58;2.30;;;1.80;;
50631;SDS011;49583;45.590;-122.498;2023-06-22T07:52:32;2.10;;;1.70;;
50631;SDS011;49583;45.590;-122.498;2023-06-22T07:55:06;4.30;;;2.10;;
50631;SDS011;49583;45.590;-122.498;2023-06-22T07:57:19;3.60;;;1.60;;
50631;SDS011;49583;45.590;-122.498;2023-06-22T07:59:59;5.60;;;2.00;;
50631;SDS011;49583;45.590;-122.498;2023-06-22T08:02:18;2.30;;;1.70;;
50631;SDS011;49583;45.590;-122.498;2023-06-22T08:04:37;1.90;;;1.60;;
50631;SDS011;49583;45.590;-122.498;2023-06-22T08:07:01;2.30;;;1.80;;
50631;SDS011;49583;45.590;-122.498;2023-06-22T08:09:27;4.00;;;2.20;;
50631;SDS011;49583;45.590;-122.498;2023-06-22T08:11:52;3.50;;;2.10;;
50631;SDS011;49583;45.590;-122.498;2023-06-22T08:14:25;3.70;;;2.00;;
50631;SDS011;49583;45.590;-122.498;2023-06-22T08:16:40;3.70;;;1.90;;
50631;SDS011;49583;45.590;-122.498;2023-06-22T08:19:14;3.80;;;2.00;;
50631;SDS011;49583;45.590;-122.498;2023-06-22T08:21:27;2.50;;;1.90;;
50631;SDS011;49583;45.590;-122.498;2023-06-22T08:23:40;2.60;;;2.20;;
50631;SDS011;49583;45.590;-122.498;2023-06-22T08:26:11;2.30;;;2.10;;
50631;SDS011;49583;45.590;-122.498;2023-06-22T08:28:35;2.80;;;2.10;;
50631;SDS011;49583;45.590;-122.498;2023-06-22T08:30:51;4.70;;;2.00;;
50631;SDS011;49583;45.590;-122.498;2023-06-22T08:33:15;4.20;;;2.20;;
50631;SDS011;49583;45.590;-122.498;2023-06-22T08:35:53;3.10;;;1.80;;
50631;SDS011;49583;45.590;-122.498;2023-06-22T08:38:27;4.50;;;2.20;;
50631;SDS011;49583;45.590;-122.498;2023-06-22T08:40:51;2.80;;;1.90;;
50631;SDS011;49583;45.590;-122.498;2023-06-22T08:43:16;2.10;;;1.70;;
50631;SDS011;49583;45.590;-122.498;2023-06-22T08:45:49;2.60;;;2.10;;
50631;SDS011;49583;45.590;-122.498;2023-06-22T08:48:05;3.90;;;2.00;;
50631;SDS011;49583;45.590;-122.498;2023-06-22T08:50:39;3.60;;;2.00;;
50631;SDS011;49583;45.590;-122.498;2023-06-22T08:53:14;4.70;;;2.00;;
50631;SDS011;49583;45.590;-122.498;2023-06-22T08:55:30;6.80;;;1.70;;
50631;SDS011;49583;45.590;-122.498;2023-06-22T08:58:03;3.70;;;1.80;;
50631;SDS011;49583;45.590;-122.498;2023-06-22T09:00:30;2.50;;;1.70;;
50631;SDS011;49583;45.590;-122.498;2023-06-22T09:03:03;7.00;;;2.00;;
50631;SDS011;49583;45.590;-122.498;2023-06-22T09:05:37;2.70;;;2.00;;
50631;SDS011;49583;45.590;-122.498;2023-06-22T09:08:10;2.70;;;2.10;;
50631;SDS011;49583;45.590;-122.498;2023-06-22T09:10:33;2.50;;;1.80;;
50631;SDS011;49583;45.590;-122.498;2023-06-22T09:13:00;4.20;;;2.00;;
50631;SDS011;49583;45.590;-122.498;2023-06-22T09:15:33;4.50;;;2.20;;
50631;SDS011;49583;45.590;-122.498;2023-06-22T09:18:06;3.30;;;1.60;;
50631;SDS011;49583;45.590;-122.498;2023-06-22T09:20:34;3.40;;;2.70;;
50631;SDS011;49583;45.590;-122.498;2023-06-22T09:23:07;3.30;;;2.30;;
50631;SDS011;49583;45.590;-122.498;2023-06-22T09:25:20;2.70;;;2.00;;
50631;SDS011;49583;45.590;-122.498;2023-06-22T09:27:46;3.70;;;1.90;;
50631;SDS011;49583;45.590;-122.498;2023-06-22T09:30:20;4.50;;;2.20;;
50631;SDS011;49583;45.590;-122.498;2023-06-22T09:32:37;7.30;;;2.40;;
50631;SDS011;49583;45.590;-122.498;2023-06-22T09:35:03;5.10;;;1.90;;
50631;SDS011;49583;45.590;-122.498;2023-06-22T09:37:28;2.80;;;1.90;;
50631;SDS011;49583;45.590;-122.498;2023-06-22T09:39:42;3.10;;;1.90;;
50631;SDS011;49583;45.590;-122.498;2023-06-22T09:41:55;2.10;;;1.80;;
50631;SDS011;49583;45.590;-122.498;2023-06-22T09:44:19;4.20;;;1.70;;
50631;SDS011;49583;45.590;-122.498;2023-06-22T09:46:46;3.00;;;1.90;;
50631;SDS011;49583;45.590;-122.498;2023-06-22T09:49:02;1.80;;;1.50;;
50631;SDS011;49583;45.590;-122.498;2023-06-22T09:51:36;2.80;;;2.00;;
50631;SDS011;49583;45.590;-122.498;2023-06-22T09:53:59;2.10;;;1.40;;
50631;SDS011;49583;45.590;-122.498;2023-06-22T09:56:15;3.40;;;1.60;;
50631;SDS011;49583;45.590;-122.498;2023-06-22T09:58:28;6.30;;;2.20;;
50631;SDS011;49583;45.590;-122.498;2023-06-22T10:00:50;2.70;;;1.40;;
50631;SDS011;49583;45.590;-122.498;2023-06-22T10:03:23;4.40;;;1.80;;
50631;SDS011;49583;45.590;-122.498;2023-06-22T10:05:55;3.60;;;1.50;;
50631;SDS011;49583;45.590;-122.498;2023-06-22T10:08:13;3.60;;;1.40;;
50631;SDS011;49583;45.590;-122.498;2023-06-22T10:10:46;4.20;;;2.20;;
50631;SDS011;49583;45.590;-122.498;2023-06-22T10:13:10;3.60;;;1.50;;
50631;SDS011;49583;45.590;-122.498;2023-06-22T10:15:42;3.50;;;1.70;;
50631;SDS011;49583;45.590;-122.498;2023-06-22T10:17:57;5.70;;;1.50;;
50631;SDS011;49583;45.590;-122.498;2023-06-22T10:20:30;10.20;;;2.20;;
50631;SDS011;49583;45.590;-122.498;2023-06-22T10:23:03;7.40;;;2.30;;
50631;SDS011;49583;45.590;-122.498;2023-06-22T10:25:16;10.80;;;3.00;;
50631;SDS011;49583;45.590;-122.498;2023-06-22T10:27:49;15.40;;;3.50;;
50631;SDS011;49583;45.590;-122.498;2023-06-22T10:30:22;7.70;;;2.90;;
50631;SDS011;49583;45.590;-122.498;2023-06-22T10:33:03;4.10;;;2.00;;
50631;SDS011;49583;45.590;-122.498;2023-06-22T10:35:16;2.60;;;1.90;;
50631;SDS011;49583;45.590;-122.498;2023-06-22T10:37:28;4.00;;;1.30;;
50631;SDS011;49583;45.590;-122.498;2023-06-22T10:39:41;2.40;;;2.00;;
50631;SDS011;49583;45.590;-122.498;2023-06-22T10:41:54;2.20;;;1.60;;
50631;SDS011;49583;45.590;-122.498;2023-06-22T10:44:06;3.00;;;1.40;;
50631;SDS011;49583;45.590;-122.498;2023-06-22T10:46:19;1.70;;;1.30;;
50631;SDS011;49583;45.590;-122.498;2023-06-22T10:48:35;4.60;;;1.50;;
50631;SDS011;49583;45.590;-122.498;2023-06-22T10:50:48;3.70;;;1.80;;
50631;SDS011;49583;45.590;-122.498;2023-06-22T10:53:01;3.50;;;1.40;;
50631;SDS011;49583;45.590;-122.498;2023-06-22T10:55:14;2.70;;;1.70;;
50631;SDS011;49583;45.590;-122.498;2023-06-22T10:57:27;5.70;;;1.60;;
50631;SDS011;49583;45.590;-122.498;2023-06-22T10:59:39;4.00;;;1.90;;
50631;SDS011;49583;45.590;-122.498;2023-06-22T11:01:52;2.90;;;1.60;;
50631;SDS011;49583;45.590;-122.498;2023-06-22T11:04:05;3.90;;;1.70;;
50631;SDS011;49583;45.590;-122.498;2023-06-22T11:06:18;4.00;;;2.00;;
50631;SDS011;49583;45.590;-122.498;2023-06-22T11:08:31;2.00;;;1.70;;
50631;SDS011;49583;45.590;-122.498;2023-06-22T11:10:45;2.10;;;1.40;;
50631;SDS011;49583;45.590;-122.498;2023-06-22T11:12:57;1.80;;;1.70;;
50631;SDS011;49583;45.590;-122.498;2023-06-22T11:15:11;2.50;;;1.80;;
50631;SDS011;49583;45.590;-122.498;2023-06-22T11:17:24;4.70;;;1.80;;
50631;SDS011;49583;45.590;-122.498;2023-06-22T11:19:37;3.20;;;1.80;;
50631;SDS011;49583;45.590;-122.498;2023-06-22T11:21:49;5.00;;;1.80;;
50631;SDS011;49583;45.590;-122.498;2023-06-22T11:24:02;1.90;;;1.40;;
50631;SDS011;49583;45.590;-122.498;2023-06-22T11:26:16;3.60;;;1.80;;
50631;SDS011;49583;45.590;-122.498;2023-06-22T11:28:28;3.60;;;1.70;;
50631;SDS011;49583;45.590;-122.498;2023-06-22T11:30:41;5.50;;;1.80;;
50631;SDS011;49583;45.590;-122.498;2023-06-22T11:32:54;4.20;;;1.40;;
50631;SDS011;49583;45.590;-122.498;2023-06-22T11:35:07;3.40;;;1.80;;
50631;SDS011;49583;45.590;-122.498;2023-06-22T11:37:20;2.80;;;1.60;;
50631;SDS011;49583;45.590;-122.498;2023-06-22T11:39:33;4.00;;;1.50;;
50631;SDS011;49583;45.590;-122.498;2023-06-22T11:41:53;3.00;;;1.60;;
50631;SDS011;49583;45.590;-122.498;2023-06-22T11:44:06;2.90;;;1.50;;
50631;SDS011;49583;45.590;-122.498;2023-06-22T11:46:19;1.40;;;1.30;;
50631;SDS011;49583;45.590;-122.498;2023-06-22T11:48:31;2.60;;;1.30;;
50631;SDS011;49583;45.590;-122.498;2023-06-22T11:50:44;2.70;;;1.90;;
50631;SDS011;49583;45.590;-122.498;2023-06-22T11:53:00;3.00;;;1.80;;
50631;SDS011;49583;45.590;-122.498;2023-06-22T11:55:15;3.00;;;1.70;;
50631;SDS011;49583;45.590;-122.498;2023-06-22T11:57:27;1.50;;;1.40;;
50631;SDS011;49583;45.590;-122.498;2023-06-22T11:59:40;2.20;;;1.30;;
50631;SDS011;49583;45.590;-122.498;2023-06-22T12:01:53;1.70;;;1.60;;
50631;SDS011;49583;45.590;-122.498;2023-06-22T12:04:05;3.70;;;1.50;;
50631;SDS011;49583;45.590;-122.498;2023-06-22T12:06:18;2.80;;;1.40;;
50631;SDS011;49583;45.590;-122.498;2023-06-22T12:08:31;8.30;;;1.60;;
50631;SDS011;49583;45.590;-122.498;2023-06-22T12:10:45;3.10;;;1.90;;
50631;SDS011;49583;45.590;-122.498;2023-06-22T12:12:58;1.50;;;1.30;;
50631;SDS011;49583;45.590;-122.498;2023-06-22T12:15:11;8.20;;;1.60;;
50631;SDS011;49583;45.590;-122.498;2023-06-22T12:17:24;3.00;;;1.70;;
50631;SDS011;49583;45.590;-122.498;2023-06-22T12:19:36;3.70;;;1.70;;
50631;SDS011;49583;45.590;-122.498;2023-06-22T12:21:49;2.90;;;1.50;;
50631;SDS011;49583;45.590;-122.498;2023-06-22T12:24:02;3.30;;;1.20;;
50631;SDS011;49583;45.590;-122.498;2023-06-22T12:26:15;5.90;;;2.40;;
50631;SDS011;49583;45.590;-122.498;2023-06-22T12:28:28;2.40;;;1.90;;
50631;SDS011;49583;45.590;-122.498;2023-06-22T12:30:40;2.90;;;1.80;;
50631;SDS011;49583;45.590;-122.498;2023-06-22T12:32:53;2.00;;;1.90;;
50631;SDS011;49583;45.590;-122.498;2023-06-22T12:35:07;7.80;;;1.80;;
50631;SDS011;49583;45.590;-122.498;2023-06-22T12:37:21;5.70;;;1.80;;
50631;SDS011;49583;45.590;-122.498;2023-06-22T12:39:34;5.90;;;2.00;;
50631;SDS011;49583;45.590;-122.498;2023-06-22T12:41:47;3.80;;;1.80;;
50631;SDS011;49583;45.590;-122.498;2023-06-22T12:44:00;1.80;;;1.70;;
50631;SDS011;49583;45.590;-122.498;2023-06-22T12:46:13;1.80;;;1.60;;
50631;SDS011;49583;45.590;-122.498;2023-06-22T12:48:26;3.40;;;1.90;;
50631;SDS011;49583;45.590;-122.498;2023-06-22T12:50:39;2.80;;;1.90;;
50631;SDS011;49583;45.590;-122.498;2023-06-22T12:52:52;3.50;;;1.40;;
50631;SDS011;49583;45.590;-122.498;2023-06-22T12:55:06;3.00;;;1.70;;
50631;SDS011;49583;45.590;-122.498;2023-06-22T12:57:19;3.10;;;2.10;;
50631;SDS011;49583;45.590;-122.498;2023-06-22T12:59:33;3.30;;;1.70;;
50631;SDS011;49583;45.590;-122.498;2023-06-22T13:01:46;5.10;;;1.90;;
50631;SDS011;49583;45.590;-122.498;2023-06-22T13:03:58;2.90;;;1.40;;
50631;SDS011;49583;45.590;-122.498;2023-06-22T13:06:11;6.00;;;1.70;;
50631;SDS011;49583;45.590;-122.498;2023-06-22T13:08:24;4.00;;;1.90;;
50631;SDS011;49583;45.590;-122.498;2023-06-22T13:10:57;2.60;;;1.80;;
50631;SDS011;49583;45.590;-122.498;2023-06-22T13:13:10;5.90;;;1.80;;
50631;SDS011;49583;45.590;-122.498;2023-06-22T13:15:23;7.20;;;2.00;;
50631;SDS011;49583;45.590;-122.498;2023-06-22T13:17:35;2.70;;;1.70;;
50631;SDS011;49583;45.590;-122.498;2023-06-22T13:19:48;4.50;;;1.70;;
50631;SDS011;49583;45.590;-122.498;2023-06-22T13:22:01;4.20;;;1.80;;
50631;SDS011;49583;45.590;-122.498;2023-06-22T13:24:14;5.30;;;1.90;;
50631;SDS011;49583;45.590;-122.498;2023-06-22T13:26:27;5.70;;;1.70;;
50631;SDS011;49583;45.590;-122.498;2023-06-22T13:28:40;2.50;;;1.50;;
50631;SDS011;49583;45.590;-122.498;2023-06-22T13:30:53;1.90;;;1.60;;
50631;SDS011;49583;45.590;-122.498;2023-06-22T13:33:06;6.10;;;1.90;;
50631;SDS011;49583;45.590;-122.498;2023-06-22T13:35:18;2.10;;;1.50;;
50631;SDS011;49583;45.590;-122.498;2023-06-22T13:37:31;4.20;;;1.60;;
50631;SDS011;49583;45.590;-122.498;2023-06-22T13:39:44;4.00;;;1.80;;
50631;SDS011;49583;45.590;-122.498;2023-06-22T13:41:56;4.60;;;1.70;;
50631;SDS011;49583;45.590;-122.498;2023-06-22T13:44:09;4.10;;;1.60;;
50631;SDS011;49583;45.590;-122.498;2023-06-22T13:46:22;2.40;;;1.70;;
50631;SDS011;49583;45.590;-122.498;2023-06-22T13:48:34;4.10;;;1.90;;
50631;SDS011;49583;45.590;-122.498;2023-06-22T13:50:47;4.30;;;1.80;;